createdAt,value
2022-09-12T00:01:28.756Z,14.85
2022-09-12T00:03:58.408Z,14.82
2022-09-12T00:06:32.351Z,14.77
2022-09-12T00:09:01.924Z,14.74
2022-09-12T00:11:42.386Z,14.68
2022-09-12T00:14:11.095Z,14.68
2022-09-12T00:16:39.572Z,14.65
2022-09-12T00:19:07.757Z,14.64
2022-09-12T00:21:36.843Z,14.67
2022-09-12T00:24:05.010Z,14.68
2022-09-12T00:26:32.978Z,14.69
2022-09-12T00:29:01.436Z,14.71
2022-09-12T00:31:29.574Z,14.71
2022-09-12T00:33:58.357Z,14.75
2022-09-12T00:36:31.381Z,14.77
2022-09-12T00:38:59.263Z,14.76
2022-09-12T00:41:37.931Z,14.73
2022-09-12T00:44:10.181Z,14.71
2022-09-12T00:46:45.067Z,14.70
2022-09-12T00:49:18.711Z,14.65
2022-09-12T00:51:50.900Z,14.61
2022-09-12T00:54:19.736Z,14.60
2022-09-12T00:56:47.700Z,14.61
2022-09-12T00:59:20.583Z,14.60
2022-09-12T01:01:49.702Z,14.61
2022-09-12T01:04:18.315Z,14.64
2022-09-12T01:06:46.572Z,14.71
2022-09-12T01:09:20.051Z,14.77
2022-09-12T01:11:48.652Z,14.83
2022-09-12T01:14:18.822Z,14.83
2022-09-12T01:16:47.067Z,14.86
2022-09-12T01:19:32.093Z,14.90
2022-09-12T01:22:09.606Z,14.93
2022-09-12T01:24:42.471Z,14.89
2022-09-12T01:27:19.470Z,14.81
2022-09-12T01:30:08.348Z,14.78
2022-09-12T01:32:39.290Z,14.79
2022-09-12T01:35:21.446Z,14.74
2022-09-12T01:37:53.787Z,14.77
2022-09-12T01:40:24.010Z,14.79
2022-09-12T01:43:32.226Z,14.85
2022-09-12T01:46:20.257Z,14.91
2022-09-12T01:48:51.269Z,14.95
2022-09-12T01:51:22.021Z,14.95
2022-09-12T01:53:52.446Z,14.94
2022-09-12T01:56:26.450Z,14.92
2022-09-12T01:59:09.174Z,14.93
2022-09-12T02:01:53.525Z,14.93
2022-09-12T02:04:22.676Z,14.92
2022-09-12T02:07:10.450Z,14.90
2022-09-12T02:09:40.354Z,14.90
2022-09-12T02:12:09.078Z,14.90
2022-09-12T02:14:38.272Z,14.90
2022-09-12T02:17:17.260Z,14.85
2022-09-12T02:19:58.845Z,14.85
2022-09-12T02:22:27.321Z,14.85
2022-09-12T02:24:59.194Z,14.86
2022-09-12T02:27:33.358Z,14.84
2022-09-12T02:30:01.294Z,14.83
2022-09-12T02:32:35.075Z,14.81
2022-09-12T02:35:09.111Z,14.81
2022-09-12T02:37:38.868Z,14.79
2022-09-12T02:40:09.005Z,14.79
2022-09-12T02:42:37.405Z,14.77
2022-09-12T02:45:05.403Z,14.76
2022-09-12T02:47:48.239Z,14.77
2022-09-12T02:50:16.254Z,14.83
2022-09-12T02:52:44.154Z,14.89
2022-09-12T02:55:14.394Z,14.93
2022-09-12T02:57:44.587Z,14.96
2022-09-12T03:00:13.050Z,14.98
2022-09-12T03:02:50.739Z,14.97
2022-09-12T03:05:27.927Z,14.94
2022-09-12T03:08:28.855Z,14.93
2022-09-12T03:10:59.808Z,14.91
2022-09-12T03:13:36.920Z,14.92
2022-09-12T03:16:18.321Z,14.95
2022-09-12T03:18:50.551Z,15.00
2022-09-12T03:21:21.690Z,14.98
2022-09-12T03:23:52.696Z,14.99
2022-09-12T03:26:23.167Z,15.01
2022-09-12T03:28:51.062Z,14.98
2022-09-12T03:31:19.181Z,14.97
2022-09-12T03:33:48.660Z,14.97
2022-09-12T03:36:17.533Z,14.96
2022-09-12T03:38:45.489Z,14.93
2022-09-12T03:41:13.614Z,14.88
2022-09-12T03:43:41.744Z,14.85
2022-09-12T03:46:09.928Z,14.79
2022-09-12T03:48:41.316Z,14.78
2022-09-12T03:51:10.019Z,14.80
2022-09-12T03:53:38.096Z,14.81
2022-09-12T03:56:09.325Z,14.78
2022-09-12T03:58:37.381Z,14.74
2022-09-12T04:01:12.584Z,14.71
2022-09-12T04:03:44.209Z,14.71
2022-09-12T04:06:15.546Z,14.67
2022-09-12T04:08:46.840Z,14.58
2022-09-12T04:11:15.588Z,14.50
2022-09-12T04:13:46.240Z,14.52
2022-09-12T04:16:17.698Z,14.59
2022-09-12T04:18:46.627Z,14.65
2022-09-12T04:21:16.554Z,14.68
2022-09-12T04:23:44.499Z,14.70
2022-09-12T04:26:14.672Z,14.67
2022-09-12T04:28:42.803Z,14.71
2022-09-12T04:31:18.183Z,14.73
2022-09-12T04:33:47.340Z,14.72
2022-09-12T04:36:17.759Z,14.77
2022-09-12T04:38:47.913Z,14.81
2022-09-12T04:41:18.519Z,14.87
2022-09-12T04:43:46.789Z,14.92
2022-09-12T04:46:16.748Z,14.98
2022-09-12T04:48:44.978Z,15.04
2022-09-12T04:51:14.895Z,15.07
2022-09-12T04:53:43.288Z,15.11
2022-09-12T04:56:11.523Z,15.13
2022-09-12T04:58:39.622Z,15.18
2022-09-12T05:01:08.310Z,15.21
2022-09-12T05:03:40.669Z,15.25
2022-09-12T05:06:17.623Z,15.29
2022-09-12T05:08:45.708Z,15.27
2022-09-12T05:11:15.452Z,15.22
2022-09-12T05:13:43.409Z,15.22
2022-09-12T05:16:13.010Z,15.23
2022-09-12T05:18:41.181Z,15.23
2022-09-12T05:21:09.593Z,15.28
2022-09-12T05:23:39.733Z,15.31
2022-09-12T05:26:12.286Z,15.31
2022-09-12T05:28:40.140Z,15.32
2022-09-12T05:31:16.754Z,15.29
2022-09-12T05:33:45.913Z,15.32
2022-09-12T05:36:15.402Z,15.38
2022-09-12T05:38:43.437Z,15.41
2022-09-12T05:41:17.483Z,15.43
2022-09-12T05:43:47.793Z,15.53
2022-09-12T05:46:18.987Z,15.65
2022-09-12T05:48:47.861Z,15.72
2022-09-12T05:51:20.564Z,15.84
2022-09-12T05:53:51.621Z,15.91
2022-09-12T05:56:21.161Z,15.98
2022-09-12T05:58:52.812Z,16.07
2022-09-12T06:01:21.557Z,16.21
2022-09-12T06:03:50.974Z,16.34
2022-09-12T06:06:19.763Z,16.38
2022-09-12T06:08:49.506Z,16.31
2022-09-12T06:11:20.551Z,16.33
2022-09-12T06:13:52.610Z,16.30
2022-09-12T06:16:28.396Z,16.31
2022-09-12T06:19:01.037Z,16.36
2022-09-12T06:21:30.823Z,16.40
2022-09-12T06:23:59.224Z,16.42
2022-09-12T06:26:27.989Z,16.45
2022-09-12T06:28:56.312Z,16.47
2022-09-12T06:31:26.148Z,16.55
2022-09-12T06:33:59.842Z,16.55
2022-09-12T06:36:29.918Z,16.56
2022-09-12T06:39:03.970Z,16.53
2022-09-12T06:41:32.349Z,16.43
2022-09-12T06:44:00.738Z,16.46
2022-09-12T06:46:28.898Z,16.64
2022-09-12T06:48:57.219Z,16.89
2022-09-12T06:51:29.253Z,17.07
2022-09-12T06:53:57.218Z,17.05
2022-09-12T06:56:28.843Z,17.06
2022-09-12T06:58:57.687Z,17.17
2022-09-12T07:01:27.451Z,17.14
2022-09-12T07:03:56.587Z,17.18
2022-09-12T07:06:30.113Z,17.29
2022-09-12T07:08:59.892Z,17.38
2022-09-12T07:11:31.852Z,17.50
2022-09-12T07:14:01.055Z,17.54
2022-09-12T07:16:30.386Z,17.55
2022-09-12T07:18:59.472Z,17.69
2022-09-12T07:21:30.027Z,17.96
2022-09-12T07:23:58.217Z,18.14
2022-09-12T07:26:29.239Z,18.02
2022-09-12T07:29:19.072Z,18.16
2022-09-12T07:31:50.429Z,17.96
2022-09-12T07:34:18.456Z,17.77
2022-09-12T07:36:46.386Z,17.72
2022-09-12T07:39:16.527Z,17.86
2022-09-12T07:41:44.577Z,17.91
2022-09-12T07:44:16.100Z,17.79
2022-09-12T07:46:44.011Z,17.76
2022-09-12T07:49:12.186Z,17.74
2022-09-12T07:51:40.903Z,17.81
2022-09-12T07:54:09.348Z,17.93
2022-09-12T07:56:39.591Z,18.06
2022-09-12T07:59:08.867Z,18.08
2022-09-12T08:01:39.494Z,18.19
2022-09-12T08:04:07.700Z,18.27
2022-09-12T08:06:36.498Z,18.37
2022-09-12T08:09:08.718Z,18.47
2022-09-12T08:11:36.652Z,18.51
2022-09-12T08:14:05.906Z,18.54
2022-09-12T08:16:34.768Z,18.49
2022-09-12T08:19:04.754Z,18.49
2022-09-12T08:21:34.780Z,18.43
2022-09-12T08:24:04.045Z,18.38
2022-09-12T08:26:33.969Z,18.46
2022-09-12T08:29:04.577Z,18.62
2022-09-12T08:31:36.605Z,18.87
2022-09-12T08:34:08.362Z,19.10
2022-09-12T08:36:36.395Z,19.26
2022-09-12T08:39:06.063Z,19.40
2022-09-12T08:41:37.772Z,19.51
2022-09-12T08:44:09.362Z,19.59
2022-09-12T08:46:46.074Z,19.60
2022-09-12T08:49:15.136Z,19.78
2022-09-12T08:51:43.063Z,20.04
2022-09-12T08:54:18.101Z,20.22
2022-09-12T08:56:48.003Z,20.32
2022-09-12T08:59:16.796Z,20.31
2022-09-12T09:01:45.632Z,20.21
2022-09-12T09:04:25.768Z,20.10
2022-09-12T09:07:04.762Z,19.89
2022-09-12T09:09:44.815Z,19.95
2022-09-12T09:12:25.082Z,20.36
2022-09-12T09:14:58.254Z,20.72
2022-09-12T09:17:28.104Z,20.66
2022-09-12T09:20:13.608Z,20.88
2022-09-12T09:22:43.887Z,21.17
2022-09-12T09:25:23.033Z,21.47
2022-09-12T09:28:15.537Z,21.86
2022-09-12T09:30:46.401Z,22.21
2022-09-12T09:33:22.719Z,22.15
2022-09-12T09:36:00.607Z,21.81
2022-09-12T09:38:37.872Z,21.70
2022-09-12T09:41:12.108Z,21.64
2022-09-12T09:43:40.129Z,21.89
2022-09-12T09:46:08.124Z,22.20
2022-09-12T09:48:36.635Z,22.49
2022-09-12T09:51:08.152Z,22.74
2022-09-12T09:53:39.075Z,23.02
2022-09-12T09:56:28.121Z,23.25
2022-09-12T09:58:56.269Z,22.95
2022-09-12T10:01:25.214Z,22.67
2022-09-12T10:03:55.483Z,22.90
2022-09-12T10:06:25.521Z,23.11
2022-09-12T10:09:05.280Z,23.21
2022-09-12T10:11:33.866Z,23.55
2022-09-12T10:14:03.167Z,24.05
2022-09-12T10:16:48.293Z,24.55
2022-09-12T10:19:43.293Z,24.97
2022-09-12T10:22:15.556Z,25.16
2022-09-12T10:24:47.072Z,24.74
2022-09-12T10:27:24.404Z,24.27
2022-09-12T10:30:15.642Z,23.79
2022-09-12T10:32:45.455Z,23.31
2022-09-12T10:35:21.317Z,23.19
2022-09-12T10:37:58.882Z,22.79
2022-09-12T10:40:32.908Z,22.84
2022-09-12T10:43:02.971Z,23.12
2022-09-12T10:45:32.331Z,23.39
2022-09-12T10:48:07.648Z,23.68
2022-09-12T10:50:42.042Z,23.66
2022-09-12T10:53:13.414Z,23.73
2022-09-12T10:55:42.077Z,23.99
2022-09-12T10:58:43.308Z,24.27
2022-09-12T11:01:17.877Z,24.64
2022-09-12T11:03:50.483Z,24.51
2022-09-12T11:06:22.067Z,24.11
2022-09-12T11:09:00.851Z,23.77
2022-09-12T11:11:49.263Z,23.49
2022-09-12T11:14:17.530Z,23.34
2022-09-12T11:16:49.343Z,23.26
2022-09-12T11:19:35.670Z,23.18
2022-09-12T11:22:05.779Z,23.16
2022-09-12T11:24:37.335Z,23.19
2022-09-12T11:27:14.844Z,23.18
2022-09-12T11:29:48.711Z,23.19
2022-09-12T11:32:36.489Z,23.25
2022-09-12T11:35:15.134Z,23.18
2022-09-12T11:38:00.771Z,23.05
2022-09-12T11:40:45.130Z,22.96
2022-09-12T11:43:22.279Z,22.98
2022-09-12T11:45:50.677Z,23.34
2022-09-12T11:48:26.759Z,23.88
2022-09-12T11:50:54.787Z,24.48
2022-09-12T11:53:26.320Z,24.96
2022-09-12T11:56:03.029Z,25.30
2022-09-12T11:58:30.986Z,25.62
2022-09-12T12:01:11.648Z,25.96
2022-09-12T12:03:43.970Z,26.27
2022-09-12T12:06:23.827Z,26.56
2022-09-12T12:08:54.022Z,26.84
2022-09-12T12:11:42.867Z,27.19
2022-09-12T12:14:24.181Z,27.52
2022-09-12T12:16:52.518Z,27.70
2022-09-12T12:19:25.199Z,27.59
2022-09-12T12:21:53.351Z,27.32
2022-09-12T12:24:25.892Z,27.24
2022-09-12T12:26:58.813Z,26.96
2022-09-12T12:29:27.239Z,27.12
2022-09-12T12:32:05.091Z,27.34
2022-09-12T12:34:36.491Z,27.15
2022-09-12T12:37:21.005Z,26.76
2022-09-12T12:39:55.868Z,25.98
2022-09-12T12:42:32.642Z,25.36
2022-09-12T12:45:11.808Z,24.78
2022-09-12T12:47:39.854Z,24.30
2022-09-12T12:50:20.796Z,23.88
2022-09-12T12:52:54.274Z,23.49
2022-09-12T12:55:31.369Z,23.32
2022-09-12T12:57:59.608Z,23.26
2022-09-12T13:00:39.706Z,23.10
2022-09-12T13:03:08.305Z,22.99
2022-09-12T13:05:47.989Z,22.82
2022-09-12T13:08:18.787Z,22.67
2022-09-12T13:10:53.698Z,22.64
2022-09-12T13:13:26.971Z,22.71
2022-09-12T13:15:56.461Z,22.82
2022-09-12T13:18:34.610Z,22.93
2022-09-12T13:21:02.600Z,23.04
2022-09-12T13:23:31.455Z,23.11
2022-09-12T13:26:01.550Z,23.18
2022-09-12T13:28:30.169Z,23.13
2022-09-12T13:31:12.577Z,23.02
2022-09-12T13:33:41.989Z,22.90
2022-09-12T13:36:10.352Z,22.89
2022-09-12T13:38:50.758Z,22.86
2022-09-12T13:41:37.315Z,22.74
2022-09-12T13:44:07.803Z,22.73
2022-09-12T13:46:38.915Z,22.89
2022-09-12T13:49:26.403Z,23.00
2022-09-12T13:51:58.616Z,23.24
2022-09-12T13:54:27.359Z,23.94
2022-09-12T13:56:58.619Z,24.95
2022-09-12T13:59:26.437Z,26.05
2022-09-12T14:01:54.306Z,25.84
2022-09-12T14:04:43.292Z,25.43
2022-09-12T14:07:20.393Z,25.02
2022-09-12T14:09:55.408Z,24.61
2022-09-12T14:12:34.942Z,24.22
2022-09-12T14:15:04.261Z,23.87
2022-09-12T14:17:33.556Z,23.86
2022-09-12T14:20:04.239Z,24.79
2022-09-12T14:22:33.098Z,25.32
2022-09-12T14:25:01.016Z,24.96
2022-09-12T14:27:30.446Z,24.53
2022-09-12T14:30:02.423Z,24.17
2022-09-12T14:32:31.199Z,23.82
2022-09-12T14:35:06.273Z,23.50
2022-09-12T14:37:34.728Z,23.22
2022-09-12T14:40:02.786Z,23.02
2022-09-12T14:42:31.289Z,22.79
2022-09-12T14:45:03.786Z,22.50
2022-09-12T14:47:35.187Z,22.26
2022-09-12T14:50:03.339Z,22.10
2022-09-12T14:52:35.388Z,22.01
2022-09-12T14:55:16.204Z,21.91
2022-09-12T14:57:46.777Z,21.84
2022-09-12T15:00:15.208Z,22.04
2022-09-12T15:02:43.504Z,22.10
2022-09-12T15:05:11.722Z,21.95
2022-09-12T15:07:46.507Z,21.82
2022-09-12T15:10:14.911Z,21.70
2022-09-12T15:12:45.934Z,21.54
2022-09-12T15:15:15.059Z,21.40
2022-09-12T15:17:43.639Z,21.24
2022-09-12T15:20:13.926Z,21.10
2022-09-12T15:22:42.109Z,21.00
2022-09-12T15:25:10.578Z,20.93
2022-09-12T15:27:43.311Z,20.94
2022-09-12T15:30:13.381Z,20.83
2022-09-12T15:32:42.582Z,20.73
2022-09-12T15:35:15.850Z,20.63
2022-09-12T15:37:46.182Z,20.57
2022-09-12T15:40:15.101Z,20.49
2022-09-12T15:42:44.319Z,20.35
2022-09-12T15:45:18.068Z,20.24
2022-09-12T15:47:48.494Z,20.18
2022-09-12T15:50:16.580Z,20.14
2022-09-12T15:52:44.696Z,20.07
2022-09-12T15:55:20.483Z,20.02
2022-09-12T15:57:48.756Z,19.95
2022-09-12T16:00:17.718Z,19.91
2022-09-12T16:02:46.763Z,19.86
2022-09-12T16:05:21.527Z,19.81
2022-09-12T16:07:51.000Z,19.78
2022-09-12T16:10:20.096Z,19.75
2022-09-12T16:12:48.391Z,19.72
2022-09-12T16:15:20.323Z,19.68
2022-09-12T16:17:49.251Z,19.62
2022-09-12T16:20:19.057Z,19.58
2022-09-12T16:22:47.252Z,19.54
2022-09-12T16:25:17.589Z,19.51
2022-09-12T16:27:49.318Z,19.49
2022-09-12T16:30:17.655Z,19.47
2022-09-12T16:32:46.487Z,19.44
2022-09-12T16:35:15.462Z,19.41
2022-09-12T16:37:43.482Z,19.37
2022-09-12T16:40:15.388Z,19.33
2022-09-12T16:42:44.387Z,19.28
2022-09-12T16:45:12.519Z,19.20
2022-09-12T16:47:40.474Z,19.15
2022-09-12T16:50:08.526Z,19.08
2022-09-12T16:52:36.612Z,19.03
2022-09-12T16:55:04.749Z,18.96
2022-09-12T16:57:33.290Z,18.88
2022-09-12T17:00:01.302Z,18.79
2022-09-12T17:02:33.480Z,18.74
2022-09-12T17:05:02.054Z,18.73
2022-09-12T17:07:30.145Z,18.72
2022-09-12T17:10:01.202Z,18.73
2022-09-12T17:12:31.426Z,18.74
2022-09-12T17:15:04.278Z,18.72
2022-09-12T17:17:32.143Z,18.68
2022-09-12T17:20:01.253Z,18.63
2022-09-12T17:22:29.616Z,18.59
2022-09-12T17:24:57.749Z,18.52
2022-09-12T17:27:25.694Z,18.46
2022-09-12T17:29:55.805Z,18.38
2022-09-12T17:32:24.347Z,18.27
2022-09-12T17:34:54.350Z,18.12
2022-09-12T17:37:22.200Z,17.96
2022-09-12T17:39:51.439Z,17.82
2022-09-12T17:42:20.854Z,17.72
2022-09-12T17:44:53.122Z,17.65
2022-09-12T17:47:21.260Z,17.59
2022-09-12T17:49:51.071Z,17.53
2022-09-12T17:52:19.086Z,17.49
2022-09-12T17:54:47.089Z,17.45
2022-09-12T17:57:15.777Z,17.40
2022-09-12T17:59:45.744Z,17.35
2022-09-12T18:02:16.771Z,17.31
2022-09-12T18:04:48.880Z,17.25
2022-09-12T18:07:19.297Z,17.20
2022-09-12T18:09:50.647Z,17.15
2022-09-12T18:12:21.950Z,17.09
2022-09-12T18:14:54.098Z,17.00
2022-09-12T18:17:31.213Z,16.89
2022-09-12T18:19:59.294Z,16.79
2022-09-12T18:22:28.781Z,16.70
2022-09-12T18:24:57.527Z,16.63
2022-09-12T18:27:27.476Z,16.60
2022-09-12T18:30:19.634Z,16.58
2022-09-12T18:32:44.794Z,16.57
2022-09-12T18:35:49.798Z,16.50
2022-09-12T18:38:21.098Z,16.38
2022-09-12T18:41:01.092Z,16.29
2022-09-12T18:43:38.681Z,16.19
2022-09-12T18:46:10.046Z,16.16
2022-09-12T18:48:41.016Z,16.13
2022-09-12T18:51:19.539Z,16.13
2022-09-12T18:53:53.759Z,16.10
2022-09-12T18:56:23.517Z,16.07
2022-09-12T18:58:59.545Z,16.03
2022-09-12T19:01:29.778Z,15.99
2022-09-12T19:03:58.183Z,15.98
2022-09-12T19:06:36.961Z,15.97
2022-09-12T19:09:08.195Z,15.95
2022-09-12T19:11:49.130Z,15.95
2022-09-12T19:14:42.855Z,15.99
2022-09-12T19:17:15.766Z,15.93
2022-09-12T19:19:49.518Z,15.86
2022-09-12T19:22:28.314Z,15.79
2022-09-12T19:25:03.177Z,15.73
2022-09-12T19:27:31.443Z,15.63
2022-09-12T19:30:03.996Z,15.56
2022-09-12T19:32:35.810Z,15.50
2022-09-12T19:35:05.800Z,15.49
2022-09-12T19:37:37.728Z,15.45
2022-09-12T19:40:11.214Z,15.40
2022-09-12T19:42:39.533Z,15.36
2022-09-12T19:45:11.241Z,15.30
2022-09-12T19:47:40.027Z,15.32
2022-09-12T19:50:12.631Z,15.34
2022-09-12T19:52:44.293Z,15.39
2022-09-12T19:55:27.460Z,15.40
2022-09-12T19:57:55.607Z,15.41
2022-09-12T20:00:31.664Z,15.41
2022-09-12T20:03:04.024Z,15.41
2022-09-12T20:05:32.601Z,15.41
2022-09-12T20:08:03.988Z,15.38
2022-09-12T20:10:32.245Z,15.34
2022-09-12T20:13:05.541Z,15.27
2022-09-12T20:15:36.015Z,15.19
2022-09-12T20:18:04.119Z,15.09
2022-09-12T20:20:37.657Z,15.02
2022-09-12T20:23:07.472Z,14.97
2022-09-12T20:25:37.780Z,14.90
2022-09-12T20:28:08.365Z,14.90
2022-09-12T20:30:36.744Z,14.90
2022-09-12T20:33:04.958Z,14.91
2022-09-12T20:35:34.165Z,14.89
2022-09-12T20:38:02.054Z,14.84
2022-09-12T20:40:36.014Z,14.74
2022-09-12T20:43:04.404Z,14.66
2022-09-12T20:45:40.339Z,14.61
2022-09-12T20:48:25.552Z,14.59
2022-09-12T20:54:25.596Z,14.63
2022-09-12T21:01:20.895Z,14.53
2022-09-12T21:03:50.186Z,14.46
2022-09-12T21:06:18.603Z,14.40
2022-09-12T21:08:46.924Z,14.36
2022-09-12T21:11:19.116Z,14.31
2022-09-12T21:13:47.770Z,14.31
2022-09-12T21:16:21.447Z,14.30
2022-09-12T21:19:28.190Z,14.27
2022-09-12T21:22:00.529Z,14.26
2022-09-12T21:27:56.340Z,14.25
2022-09-12T21:30:24.379Z,14.20
2022-09-12T21:32:52.529Z,14.19
2022-09-12T21:35:21.501Z,14.17
2022-09-12T21:37:51.271Z,14.17
2022-09-12T21:40:19.459Z,14.17
2022-09-12T21:42:51.426Z,14.10
2022-09-12T21:45:19.434Z,14.11
2022-09-12T21:47:47.296Z,14.14
2022-09-12T21:50:15.250Z,14.10
2022-09-12T21:52:43.213Z,14.00
2022-09-12T21:55:12.138Z,13.90
2022-09-12T21:57:43.105Z,13.87
2022-09-12T22:00:18.319Z,13.86
2022-09-12T22:02:48.765Z,13.82
2022-09-12T22:05:20.081Z,13.84
2022-09-12T22:07:48.574Z,13.84
2022-09-12T22:10:16.741Z,13.87
2022-09-12T22:13:09.580Z,13.96
2022-09-12T22:15:40.861Z,14.01
2022-09-12T22:18:09.208Z,14.01
2022-09-12T22:20:40.041Z,14.00
2022-09-12T22:23:27.133Z,13.98
2022-09-12T22:30:23.703Z,13.97
2022-09-12T22:32:53.105Z,13.88
2022-09-12T22:35:21.064Z,13.76
2022-09-12T22:37:49.962Z,13.71
2022-09-12T22:40:17.975Z,13.68
2022-09-12T22:42:46.078Z,13.62
2022-09-12T22:45:14.308Z,13.56
2022-09-12T22:47:42.211Z,13.51
2022-09-12T22:50:09.991Z,13.49
2022-09-12T22:52:37.771Z,13.51
2022-09-12T22:55:06.785Z,13.53
2022-09-12T22:57:34.788Z,13.51
2022-09-12T23:00:03.879Z,13.48
2022-09-12T23:02:31.776Z,13.44
2022-09-12T23:04:59.814Z,13.44
2022-09-12T23:07:27.608Z,13.40
2022-09-12T23:09:57.173Z,13.35
2022-09-12T23:12:28.190Z,13.34
2022-09-12T23:14:55.894Z,13.30
2022-09-12T23:17:24.059Z,13.28
2022-09-12T23:19:52.874Z,13.26
2022-09-12T23:22:21.110Z,13.19
2022-09-12T23:24:48.871Z,13.13
2022-09-12T23:27:16.830Z,13.08
2022-09-12T23:29:45.794Z,13.04
2022-09-12T23:32:13.588Z,13.02
2022-09-12T23:34:41.303Z,12.99
2022-09-12T23:37:09.104Z,13.00
2022-09-12T23:39:36.878Z,12.99
2022-09-12T23:42:05.730Z,12.98
2022-09-12T23:44:33.687Z,12.97
2022-09-12T23:47:04.051Z,12.97
2022-09-12T23:49:31.878Z,12.99
2022-09-12T23:51:59.605Z,13.02
2022-09-12T23:54:27.405Z,12.99
2022-09-12T23:56:55.639Z,12.93
2022-09-12T23:59:26.086Z,12.93
